createdAt,value
2022-11-19T00:05:24.517Z,23.6
2022-11-19T00:11:06.710Z,23.6
2022-11-19T00:16:30.506Z,23.6
2022-11-19T00:21:52.812Z,23.6
2022-11-19T00:27:30.925Z,23.6
2022-11-19T00:33:23.604Z,23.6
2022-11-19T00:38:45.569Z,23.6
2022-11-19T00:44:09.635Z,23.6
2022-11-19T00:49:47.426Z,23.5
2022-11-19T00:55:24.954Z,23.6
2022-11-19T01:00:47.165Z,23.5
2022-11-19T01:06:25.699Z,23.6
2022-11-19T01:11:48.321Z,23.6
2022-11-19T01:17:25.590Z,23.6
2022-11-19T01:23:03.808Z,23.6
2022-11-19T01:28:30.828Z,23.5
2022-11-19T01:33:52.657Z,23.5
2022-11-19T01:39:30.257Z,23.6
2022-11-19T01:45:08.188Z,23.5
2022-11-19T01:50:29.979Z,23.5
2022-11-19T01:56:08.260Z,23.5
2022-11-19T02:01:46.166Z,23.6
2022-11-19T02:07:24.556Z,23.5
2022-11-19T02:12:46.717Z,23.5
2022-11-19T02:18:24.095Z,23.5
2022-11-19T02:24:07.538Z,23.5
2022-11-19T02:29:43.937Z,23.5
2022-11-19T02:35:04.738Z,23.6
2022-11-19T02:40:43.098Z,23.5
2022-11-19T02:51:27.476Z,23.5
2022-11-19T02:57:05.101Z,23.5
2022-11-19T03:02:28.350Z,23.4
2022-11-19T03:07:50.407Z,23.5
2022-11-19T03:13:28.061Z,23.5
2022-11-19T03:19:05.246Z,23.5
2022-11-19T03:24:11.266Z,23.5
2022-11-19T03:29:33.788Z,23.5
2022-11-19T03:35:10.993Z,23.5
2022-11-19T03:40:49.525Z,23.5
2022-11-19T03:46:26.756Z,23.5
2022-11-19T03:52:04.472Z,23.5
2022-11-19T03:57:43.711Z,23.5
2022-11-19T04:03:27.045Z,23.4
2022-11-19T04:09:05.300Z,23.4
2022-11-19T04:14:41.692Z,23.4
2022-11-19T04:20:04.323Z,23.5
2022-11-19T04:25:26.590Z,23.4
2022-11-19T04:30:48.941Z,23.5
2022-11-19T04:35:55.657Z,23.4
2022-11-19T04:41:33.389Z,23.4
2022-11-19T04:46:55.090Z,23.4
2022-11-19T04:52:17.476Z,23.4
2022-11-19T04:58:01.314Z,23.4
2022-11-19T05:03:40.793Z,23.5
2022-11-19T05:08:47.368Z,23.4
2022-11-19T05:14:30.227Z,23.4
2022-11-19T05:20:07.459Z,23.4
2022-11-19T05:25:45.680Z,23.4
2022-11-19T05:31:30.814Z,23.4
2022-11-19T05:37:13.288Z,23.4
2022-11-19T05:42:51.354Z,23.4
2022-11-19T05:48:28.917Z,23.4
2022-11-19T05:54:07.328Z,23.4
2022-11-19T05:59:45.784Z,23.4
2022-11-19T06:05:24.073Z,23.4
2022-11-19T06:11:01.224Z,23.4
2022-11-19T06:16:43.808Z,23.4
2022-11-19T06:22:23.494Z,23.4
2022-11-19T06:27:46.084Z,23.4
2022-11-19T06:33:24.296Z,23.4
2022-11-19T06:39:08.828Z,23.3
2022-11-19T06:44:52.124Z,23.4
2022-11-19T06:50:31.385Z,23.4
2022-11-19T06:56:11.021Z,23.4
2022-11-19T07:01:49.218Z,23.4
2022-11-19T07:07:27.502Z,23.4
2022-11-19T07:13:07.216Z,23.4
2022-11-19T07:18:30.982Z,23.4
2022-11-19T07:24:10.740Z,23.3
2022-11-19T07:29:49.293Z,23.4
2022-11-19T07:35:26.651Z,23.3
2022-11-19T07:41:12.342Z,23.3
2022-11-19T07:46:56.185Z,23.3
2022-11-19T07:52:38.332Z,23.3
2022-11-19T07:58:07.974Z,23.4
2022-11-19T08:03:30.575Z,23.3
2022-11-19T08:09:13.011Z,23.3
2022-11-19T08:14:51.267Z,23.3
2022-11-19T08:20:33.770Z,23.3
2022-11-19T08:26:11.785Z,23.3
2022-11-19T08:31:52.491Z,23.3
2022-11-19T08:37:31.134Z,23.3
2022-11-19T08:43:09.688Z,23.3
2022-11-19T08:48:47.711Z,23.3
2022-11-19T08:54:25.710Z,23.3
2022-11-19T09:00:06.334Z,23.3
2022-11-19T09:05:51.367Z,23.3
2022-11-19T09:11:29.499Z,23.3
2022-11-19T09:16:52.518Z,23.3
2022-11-19T09:22:34.220Z,23.3
2022-11-19T09:28:18.014Z,23.2
2022-11-19T09:33:55.396Z,23.2
2022-11-19T09:39:33.310Z,23.2
2022-11-19T09:45:17.576Z,23.2
2022-11-19T09:50:54.790Z,23.2
2022-11-19T09:56:33.079Z,23.2
2022-11-19T10:02:11.232Z,23.1
2022-11-19T10:07:33.999Z,23.1
2022-11-19T10:13:17.706Z,23.1
2022-11-19T10:18:45.632Z,23.1
2022-11-19T10:24:25.364Z,23.1
2022-11-19T10:30:02.877Z,23.1
2022-11-19T10:35:40.848Z,23.1
2022-11-19T10:41:24.001Z,23.1
2022-11-19T10:47:05.302Z,23.1
2022-11-19T10:52:46.878Z,23.1
2022-11-19T10:58:14.081Z,23.1
2022-11-19T11:03:39.463Z,23
2022-11-19T11:09:19.015Z,23
2022-11-19T11:14:56.944Z,23.1
2022-11-19T11:20:36.210Z,23
2022-11-19T11:26:18.440Z,23.1
2022-11-19T11:31:56.694Z,23
2022-11-19T11:37:28.851Z,23
2022-11-19T11:43:11.636Z,23
2022-11-19T11:48:49.583Z,22.9
2022-11-19T11:54:18.686Z,22.9
2022-11-19T11:59:41.137Z,22.9
2022-11-19T12:05:01.447Z,22.9
2022-11-19T12:10:45.311Z,22.9
2022-11-19T12:16:29.008Z,22.9
2022-11-19T12:21:51.459Z,22.9
2022-11-19T12:27:29.222Z,22.9
2022-11-19T12:33:06.449Z,22.9
2022-11-19T12:38:44.156Z,22.9
2022-11-19T12:44:23.611Z,22.9
2022-11-19T12:50:03.342Z,23
2022-11-19T12:55:46.723Z,22.9
2022-11-19T13:01:25.259Z,23
2022-11-19T13:06:50.825Z,22.9
2022-11-19T13:12:13.688Z,22.9
2022-11-19T13:17:36.401Z,22.9
2022-11-19T13:23:13.917Z,22.9
2022-11-19T13:28:51.917Z,22.9
2022-11-19T13:34:30.062Z,22.9
2022-11-19T13:40:13.764Z,22.9
2022-11-19T13:46:17.147Z,22.9
2022-11-19T13:51:57.057Z,22.9
2022-11-19T13:57:38.131Z,22.8
2022-11-19T14:03:15.956Z,22.9
2022-11-19T14:08:58.672Z,22.8
2022-11-19T14:14:20.939Z,22.8
2022-11-19T14:19:32.605Z,22.8
2022-11-19T14:24:55.346Z,22.8
2022-11-19T14:30:33.925Z,22.8
2022-11-19T14:36:12.164Z,22.8
2022-11-19T14:41:54.689Z,22.8
2022-11-19T14:47:33.641Z,22.8
2022-11-19T14:52:56.211Z,22.8
2022-11-19T14:58:34.745Z,22.8
2022-11-19T15:04:13.316Z,22.8
2022-11-19T15:09:57.272Z,22.8
2022-11-19T15:15:34.624Z,22.8
2022-11-19T15:20:56.486Z,22.7
2022-11-19T15:26:25.033Z,22.7
2022-11-19T15:31:33.853Z,22.7
2022-11-19T15:37:31.670Z,22.7
2022-11-19T15:42:54.429Z,22.7
2022-11-19T15:48:32.356Z,22.6
2022-11-19T15:53:45.933Z,22.6
2022-11-19T15:59:07.904Z,22.6
2022-11-19T16:04:16.232Z,22.6
2022-11-19T16:09:54.304Z,22.6
2022-11-19T16:15:03.117Z,22.6
2022-11-19T16:20:31.806Z,22.6
2022-11-19T16:26:14.223Z,22.6
2022-11-19T16:31:52.385Z,22.6
2022-11-19T16:37:37.238Z,22.6
2022-11-19T16:43:15.168Z,22.6
2022-11-19T16:48:38.031Z,22.6
2022-11-19T16:54:15.987Z,22.6
2022-11-19T16:59:42.237Z,22.6
2022-11-19T17:05:26.015Z,22.6
2022-11-19T17:11:04.160Z,22.6
2022-11-19T17:16:26.638Z,22.6
2022-11-19T17:22:10.407Z,22.5
2022-11-19T17:27:37.125Z,22.6
2022-11-19T17:33:15.243Z,22.5
2022-11-19T17:38:41.932Z,22.5
2022-11-19T17:44:20.498Z,22.5
2022-11-19T17:49:39.512Z,22.5
2022-11-19T17:55:02.121Z,22.5
2022-11-19T18:00:40.040Z,22.5
2022-11-19T18:06:20.376Z,22.5
2022-11-19T18:11:43.468Z,22.5
2022-11-19T18:16:36.617Z,22.4
2022-11-19T18:22:16.267Z,22.4
2022-11-19T18:27:55.204Z,22.4
2022-11-19T18:33:22.370Z,22.4
2022-11-19T18:38:47.038Z,22.4
2022-11-19T18:44:32.201Z,22.4
2022-11-19T18:50:11.755Z,22.4
2022-11-19T18:55:52.606Z,22.4
2022-11-19T19:01:38.842Z,22.4
2022-11-19T19:06:52.139Z,22.4
2022-11-19T19:12:02.940Z,22.4
2022-11-19T19:17:42.056Z,22.4
2022-11-19T19:23:10.317Z,22.4
2022-11-19T19:28:57.131Z,22.4
2022-11-19T19:34:25.746Z,22.3
2022-11-19T19:40:05.632Z,22.3
2022-11-19T19:45:50.443Z,22.3
2022-11-19T19:51:30.252Z,22.3
2022-11-19T19:57:10.171Z,22.3
2022-11-19T20:02:35.533Z,22.3
2022-11-19T20:08:15.239Z,22.3
2022-11-19T20:13:58.571Z,22.3
2022-11-19T20:19:27.293Z,22.3
2022-11-19T20:25:07.584Z,22.3
2022-11-19T20:30:47.747Z,22.3
2022-11-19T20:36:25.781Z,22.3
2022-11-19T20:41:48.403Z,22.3
2022-11-19T20:47:33.237Z,22.3
2022-11-19T20:53:14.891Z,22.3
2022-11-19T20:58:57.139Z,22.3
2022-11-19T21:04:39.713Z,22.3
2022-11-19T21:10:07.761Z,22.2
2022-11-19T21:15:45.641Z,22.2
2022-11-19T21:21:12.036Z,22.3
2022-11-19T21:26:54.872Z,22.2
2022-11-19T21:32:33.284Z,22.2
2022-11-19T21:38:12.429Z,22.2
2022-11-19T21:43:52.066Z,22.2
2022-11-19T21:49:30.330Z,22.2
2022-11-19T21:55:08.023Z,22.2
2022-11-19T22:00:51.894Z,22.2
2022-11-19T22:06:29.417Z,22.2
2022-11-19T22:12:13.025Z,22.1
2022-11-19T22:17:20.081Z,22.1
2022-11-19T22:22:58.316Z,22.2
2022-11-19T22:28:36.621Z,22.1
2022-11-19T22:34:20.444Z,22.2
2022-11-19T22:40:04.483Z,22.1
2022-11-19T22:44:55.729Z,22.2
2022-11-19T22:50:18.246Z,22.2
2022-11-19T22:55:56.414Z,22.1
2022-11-19T23:00:48.692Z,22.1
2022-11-19T23:06:31.767Z,22.2
2022-11-19T23:11:54.625Z,22.2
2022-11-19T23:17:32.935Z,22.2
2022-11-19T23:23:13.481Z,22.2
2022-11-19T23:28:51.282Z,22.2
2022-11-19T23:34:35.314Z,22.3
2022-11-19T23:40:14.110Z,22.3
2022-11-19T23:45:41.364Z,22.3
2022-11-19T23:51:19.415Z,22.3
2022-11-19T23:56:57.862Z,22.3
